sensor_id;sensor_type;location;lat;lon;timestamp;pressure;altitude;pressure_sealevel;temperature;humidity
37852;BME280;23691;52.486;4.650;2022-10-17T00:01:08;101618.88;;;15.13;76.03
37852;BME280;23691;52.486;4.650;2022-10-17T00:03:38;101617.91;;;15.14;75.88
37852;BME280;23691;52.486;4.650;2022-10-17T00:06:09;101607.94;;;15.15;76.08
37852;BME280;23691;52.486;4.650;2022-10-17T00:08:37;101601.72;;;15.14;76.03
37852;BME280;23691;52.486;4.650;2022-10-17T00:11:20;101609.97;;;15.13;76.07
37852;BME280;23691;52.486;4.650;2022-10-17T00:13:52;101607.47;;;15.11;76.35
37852;BME280;23691;52.486;4.650;2022-10-17T00:16:30;101607.47;;;15.11;76.28
37852;BME280;23691;52.486;4.650;2022-10-17T00:19:10;101592.31;;;15.10;76.30
37852;BME280;23691;52.486;4.650;2022-10-17T00:21:38;101594.16;;;15.10;76.35
37852;BME280;23691;52.486;4.650;2022-10-17T00:24:06;101589.78;;;15.09;76.31
37852;BME280;23691;52.486;4.650;2022-10-17T00:26:47;101593.50;;;15.08;76.54
37852;BME280;23691;52.486;4.650;2022-10-17T00:29:24;101593.66;;;15.06;76.61
37852;BME280;23691;52.486;4.650;2022-10-17T00:31:57;101600.06;;;15.05;76.62
37852;BME280;23691;52.486;4.650;2022-10-17T00:34:28;101596.91;;;15.01;76.61
37852;BME280;23691;52.486;4.650;2022-10-17T00:37:04;101594.38;;;15.00;76.60
37852;BME280;23691;52.486;4.650;2022-10-17T00:39:29;101590.00;;;14.99;76.93
37852;BME280;23691;52.486;4.650;2022-10-17T00:41:55;101577.72;;;14.96;76.78
37852;BME280;23691;52.486;4.650;2022-10-17T00:46:59;101575.38;;;14.93;76.99
37852;BME280;23691;52.486;4.650;2022-10-17T00:49:28;101578.41;;;14.90;77.14
37852;BME280;23691;52.486;4.650;2022-10-17T00:52:14;101561.41;;;14.90;77.40
37852;BME280;23691;52.486;4.650;2022-10-17T00:54:56;101558.72;;;14.90;77.53
37852;BME280;23691;52.486;4.650;2022-10-17T00:57:23;101559.41;;;14.92;77.41
37852;BME280;23691;52.486;4.650;2022-10-17T00:59:52;101562.72;;;14.94;77.38
37852;BME280;23691;52.486;4.650;2022-10-17T01:02:25;101552.97;;;14.93;77.52
37852;BME280;23691;52.486;4.650;2022-10-17T01:04:55;101551.13;;;14.93;77.43
37852;BME280;23691;52.486;4.650;2022-10-17T01:07:34;101540.53;;;14.92;77.57
37852;BME280;23691;52.486;4.650;2022-10-17T01:10:00;101547.75;;;14.91;77.49
37852;BME280;23691;52.486;4.650;2022-10-17T01:15:41;101530.94;;;14.89;77.80
37852;BME280;23691;52.486;4.650;2022-10-17T01:32:05;101516.66;;;14.80;78.28
37852;BME280;23691;52.486;4.650;2022-10-17T01:37:45;101506.72;;;14.81;78.22
37852;BME280;23691;52.486;4.650;2022-10-17T01:40:27;101493.47;;;14.79;78.25
37852;BME280;23691;52.486;4.650;2022-10-17T01:46:16;101488.06;;;14.79;78.83
37852;BME280;23691;52.486;4.650;2022-10-17T01:48:47;101473.72;;;14.79;78.50
37852;BME280;23691;52.486;4.650;2022-10-17T01:51:18;101467.34;;;14.80;78.92
37852;BME280;23691;52.486;4.650;2022-10-17T01:53:54;101474.41;;;14.81;78.93
37852;BME280;23691;52.486;4.650;2022-10-17T01:56:24;101460.94;;;14.81;79.14
37852;BME280;23691;52.486;4.650;2022-10-17T01:59:18;101451.84;;;14.82;78.95
37852;BME280;23691;52.486;4.650;2022-10-17T02:01:43;101456.22;;;14.83;79.18
37852;BME280;23691;52.486;4.650;2022-10-17T02:04:10;101457.25;;;14.82;79.00
37852;BME280;23691;52.486;4.650;2022-10-17T02:06:36;101447.97;;;14.85;79.14
37852;BME280;23691;52.486;4.650;2022-10-17T02:09:26;101446.94;;;14.86;79.68
37852;BME280;23691;52.486;4.650;2022-10-17T02:23:23;101435.63;;;14.90;79.81
37852;BME280;23691;52.486;4.650;2022-10-17T02:26:17;101444.38;;;14.92;80.07
37852;BME280;23691;52.486;4.650;2022-10-17T02:29:08;101439.81;;;14.93;80.19
37852;BME280;23691;52.486;4.650;2022-10-17T02:31:38;101441.69;;;14.92;80.43
37852;BME280;23691;52.486;4.650;2022-10-17T02:34:08;101429.72;;;14.95;80.45
37852;BME280;23691;52.486;4.650;2022-10-17T02:36:46;101430.16;;;14.98;80.70
37852;BME280;23691;52.486;4.650;2022-10-17T02:39:14;101437.91;;;15.01;80.77
37852;BME280;23691;52.486;4.650;2022-10-17T02:41:44;101443.94;;;15.03;81.35
37852;BME280;23691;52.486;4.650;2022-10-17T02:44:14;101439.06;;;15.07;81.46
37852;BME280;23691;52.486;4.650;2022-10-17T02:46:41;101422.50;;;15.10;81.95
37852;BME280;23691;52.486;4.650;2022-10-17T02:49:19;101424.00;;;15.13;81.99
37852;BME280;23691;52.486;4.650;2022-10-17T02:55:29;101440.47;;;15.18;82.47
37852;BME280;23691;52.486;4.650;2022-10-17T02:57:40;101429.53;;;15.19;82.74
37852;BME280;23691;52.486;4.650;2022-10-17T03:00:09;101429.16;;;15.22;82.86
37852;BME280;23691;52.486;4.650;2022-10-17T03:02:53;101434.00;;;15.27;82.99
37852;BME280;23691;52.486;4.650;2022-10-17T03:05:28;101433.19;;;15.27;82.86
37852;BME280;23691;52.486;4.650;2022-10-17T03:07:58;101447.50;;;15.27;83.08
37852;BME280;23691;52.486;4.650;2022-10-17T03:10:23;101456.41;;;15.28;83.21
37852;BME280;23691;52.486;4.650;2022-10-17T03:12:49;101457.44;;;15.27;83.51
37852;BME280;23691;52.486;4.650;2022-10-17T03:15:14;101461.63;;;15.29;83.75
37852;BME280;23691;52.486;4.650;2022-10-17T03:17:40;101458.72;;;15.31;83.85
37852;BME280;23691;52.486;4.650;2022-10-17T03:20:06;101456.53;;;15.34;83.78
37852;BME280;23691;52.486;4.650;2022-10-17T03:22:34;101469.66;;;15.37;84.06
37852;BME280;23691;52.486;4.650;2022-10-17T03:25:00;101471.50;;;15.37;84.04
37852;BME280;23691;52.486;4.650;2022-10-17T03:27:27;101461.56;;;15.37;84.14
37852;BME280;23691;52.486;4.650;2022-10-17T03:29:53;101460.34;;;15.40;84.58
37852;BME280;23691;52.486;4.650;2022-10-17T03:32:20;101446.88;;;15.40;84.55
37852;BME280;23691;52.486;4.650;2022-10-17T03:34:46;101453.75;;;15.42;84.26
37852;BME280;23691;52.486;4.650;2022-10-17T03:37:14;101463.53;;;15.43;84.34
37852;BME280;23691;52.486;4.650;2022-10-17T03:39:39;101458.78;;;15.45;84.27
37852;BME280;23691;52.486;4.650;2022-10-17T03:42:04;101457.78;;;15.46;84.61
37852;BME280;23691;52.486;4.650;2022-10-17T03:44:34;101462.50;;;15.44;84.38
37852;BME280;23691;52.486;4.650;2022-10-17T03:47:00;101466.88;;;15.45;84.83
37852;BME280;23691;52.486;4.650;2022-10-17T03:49:25;101464.00;;;15.47;84.68
37852;BME280;23691;52.486;4.650;2022-10-17T03:51:53;101449.53;;;15.48;84.79
37852;BME280;23691;52.486;4.650;2022-10-17T03:54:19;101451.19;;;15.49;84.89
37852;BME280;23691;52.486;4.650;2022-10-17T03:56:44;101443.94;;;15.50;85.06
37852;BME280;23691;52.486;4.650;2022-10-17T03:59:13;101449.97;;;15.52;85.00
37852;BME280;23691;52.486;4.650;2022-10-17T04:01:39;101432.59;;;15.54;84.93
37852;BME280;23691;52.486;4.650;2022-10-17T04:04:05;101443.22;;;15.56;85.08
37852;BME280;23691;52.486;4.650;2022-10-17T04:06:43;101452.97;;;15.57;85.23
37852;BME280;23691;52.486;4.650;2022-10-17T04:09:44;101459.03;;;15.59;85.14
37852;BME280;23691;52.486;4.650;2022-10-17T04:12:09;101460.88;;;15.58;85.24
37852;BME280;23691;52.486;4.650;2022-10-17T04:14:37;101462.56;;;15.59;85.20
37852;BME280;23691;52.486;4.650;2022-10-17T04:17:05;101469.81;;;15.59;85.36
37852;BME280;23691;52.486;4.650;2022-10-17T04:19:31;101484.13;;;15.59;85.02
37852;BME280;23691;52.486;4.650;2022-10-17T04:21:56;101483.97;;;15.61;85.30
37852;BME280;23691;52.486;4.650;2022-10-17T04:24:22;101482.09;;;15.61;85.32
37852;BME280;23691;52.486;4.650;2022-10-17T04:26:50;101475.50;;;15.64;85.35
37852;BME280;23691;52.486;4.650;2022-10-17T04:29:18;101468.22;;;15.64;85.37
37852;BME280;23691;52.486;4.650;2022-10-17T04:31:43;101472.78;;;15.64;85.28
37852;BME280;23691;52.486;4.650;2022-10-17T04:34:09;101466.75;;;15.62;85.10
37852;BME280;23691;52.486;4.650;2022-10-17T04:36:47;101481.72;;;15.64;85.30
37852;BME280;23691;52.486;4.650;2022-10-17T04:40:00;101484.25;;;15.66;85.22
37852;BME280;23691;52.486;4.650;2022-10-17T04:45:59;101482.03;;;15.70;85.88
37852;BME280;23691;52.486;4.650;2022-10-17T04:48:28;101488.09;;;15.72;86.08
37852;BME280;23691;52.486;4.650;2022-10-17T04:51:07;101497.69;;;15.74;85.63
37852;BME280;23691;52.486;4.650;2022-10-17T04:53:41;101497.31;;;15.77;86.17
37852;BME280;23691;52.486;4.650;2022-10-17T04:56:15;101499.84;;;15.79;86.25
37852;BME280;23691;52.486;4.650;2022-10-17T04:58:42;101485.97;;;15.82;86.46
37852;BME280;23691;52.486;4.650;2022-10-17T05:01:13;101494.56;;;15.85;86.21
37852;BME280;23691;52.486;4.650;2022-10-17T05:03:52;101487.94;;;15.88;86.27
37852;BME280;23691;52.486;4.650;2022-10-17T05:06:24;101486.91;;;15.89;86.79
37852;BME280;23691;52.486;4.650;2022-10-17T05:08:52;101486.38;;;15.94;86.87
37852;BME280;23691;52.486;4.650;2022-10-17T05:11:39;101481.25;;;15.99;86.81
37852;BME280;23691;52.486;4.650;2022-10-17T05:14:06;101494.75;;;15.99;87.13
37852;BME280;23691;52.486;4.650;2022-10-17T05:16:34;101498.09;;;16.01;86.82
37852;BME280;23691;52.486;4.650;2022-10-17T05:19:02;101492.53;;;16.02;87.17
37852;BME280;23691;52.486;4.650;2022-10-17T05:21:34;101486.28;;;16.02;87.30
37852;BME280;23691;52.486;4.650;2022-10-17T05:24:10;101493.38;;;16.03;87.14
37852;BME280;23691;52.486;4.650;2022-10-17T05:26:35;101479.50;;;16.06;87.41
37852;BME280;23691;52.486;4.650;2022-10-17T05:29:06;101489.91;;;16.09;87.00
37852;BME280;23691;52.486;4.650;2022-10-17T05:31:32;101493.44;;;16.09;87.36
37852;BME280;23691;52.486;4.650;2022-10-17T05:34:03;101509.47;;;16.11;87.16
37852;BME280;23691;52.486;4.650;2022-10-17T05:46:13;101515.44;;;16.21;87.35
37852;BME280;23691;52.486;4.650;2022-10-17T05:52:42;101512.16;;;16.26;87.65
37852;BME280;23691;52.486;4.650;2022-10-17T05:55:24;101514.50;;;16.29;87.72
37852;BME280;23691;52.486;4.650;2022-10-17T05:57:54;101517.03;;;16.30;87.57
37852;BME280;23691;52.486;4.650;2022-10-17T07:11:31;101579.25;;;16.82;86.66
37852;BME280;23691;52.486;4.650;2022-10-17T07:16:48;101592.78;;;16.82;87.01
37852;BME280;23691;52.486;4.650;2022-10-17T07:19:25;101592.78;;;16.82;86.97
37852;BME280;23691;52.486;4.650;2022-10-17T07:21:56;101595.47;;;16.82;86.50
37852;BME280;23691;52.486;4.650;2022-10-17T07:33:52;101645.69;;;16.76;86.97
37852;BME280;23691;52.486;4.650;2022-10-17T07:36:22;101653.31;;;16.72;86.56
37852;BME280;23691;52.486;4.650;2022-10-17T07:38:57;101677.63;;;16.72;87.04
37852;BME280;23691;52.486;4.650;2022-10-17T08:45:23;101795.94;;;17.00;89.68
37852;BME280;23691;52.486;4.650;2022-10-17T08:48:15;101793.06;;;17.02;89.74
37852;BME280;23691;52.486;4.650;2022-10-17T09:14:29;101782.38;;;17.23;90.92
37852;BME280;23691;52.486;4.650;2022-10-17T09:19:58;101784.44;;;17.36;91.04
37852;BME280;23691;52.486;4.650;2022-10-17T09:22:32;101791.78;;;17.42;90.86
37852;BME280;23691;52.486;4.650;2022-10-17T09:25:04;101793.47;;;17.43;91.03
37852;BME280;23691;52.486;4.650;2022-10-17T09:28:02;101805.59;;;17.47;90.69
37852;BME280;23691;52.486;4.650;2022-10-17T09:30:46;101802.88;;;17.47;90.63
37852;BME280;23691;52.486;4.650;2022-10-17T09:33:25;101805.59;;;17.47;90.71
37852;BME280;23691;52.486;4.650;2022-10-17T09:35:53;101802.25;;;17.45;90.13
37852;BME280;23691;52.486;4.650;2022-10-17T09:38:23;101803.94;;;17.46;90.10
37852;BME280;23691;52.486;4.650;2022-10-17T09:40:56;101786.09;;;17.52;90.32
37852;BME280;23691;52.486;4.650;2022-10-17T09:43:22;101794.41;;;17.50;90.01
37852;BME280;23691;52.486;4.650;2022-10-17T09:48:38;101805.78;;;17.60;89.28
37852;BME280;23691;52.486;4.650;2022-10-17T09:51:05;101797.28;;;17.64;89.21
37852;BME280;23691;52.486;4.650;2022-10-17T09:53:40;101842.47;;;17.63;88.93
37852;BME280;23691;52.486;4.650;2022-10-17T09:56:10;101837.44;;;17.60;88.91
37852;BME280;23691;52.486;4.650;2022-10-17T09:58:43;101835.34;;;17.62;88.55
37852;BME280;23691;52.486;4.650;2022-10-17T10:01:20;101823.78;;;17.68;88.20
37852;BME280;23691;52.486;4.650;2022-10-17T10:03:46;101837.22;;;17.76;87.86
37852;BME280;23691;52.486;4.650;2022-10-17T10:08:53;101864.59;;;17.81;87.57
37852;BME280;23691;52.486;4.650;2022-10-17T10:11:24;101856.28;;;17.83;87.13
37852;BME280;23691;52.486;4.650;2022-10-17T10:13:50;101865.72;;;17.87;87.09
37852;BME280;23691;52.486;4.650;2022-10-17T10:16:40;101860.66;;;17.84;86.84
37852;BME280;23691;52.486;4.650;2022-10-17T10:19:27;101874.69;;;17.88;86.54
37852;BME280;23691;52.486;4.650;2022-10-17T10:21:55;101880.94;;;17.88;86.05
37852;BME280;23691;52.486;4.650;2022-10-17T10:24:21;101885.47;;;17.73;86.01
37852;BME280;23691;52.486;4.650;2022-10-17T10:26:55;101892.19;;;17.62;85.91
37852;BME280;23691;52.486;4.650;2022-10-17T10:29:42;101904.31;;;17.51;85.88
37852;BME280;23691;52.486;4.650;2022-10-17T10:34:57;101906.44;;;17.41;86.40
37852;BME280;23691;52.486;4.650;2022-10-17T10:40:03;101917.97;;;17.35;85.96
37852;BME280;23691;52.486;4.650;2022-10-17T10:42:36;101924.78;;;17.31;85.98
37852;BME280;23691;52.486;4.650;2022-10-17T10:45:28;101920.75;;;17.27;86.33
37852;BME280;23691;52.486;4.650;2022-10-17T10:48:22;101922.81;;;17.25;86.41
37852;BME280;23691;52.486;4.650;2022-10-17T10:50:52;101934.81;;;17.22;86.02
37852;BME280;23691;52.486;4.650;2022-10-17T10:56:17;101934.28;;;17.27;86.38
37852;BME280;23691;52.486;4.650;2022-10-17T10:58:54;101938.31;;;17.31;86.07
37852;BME280;23691;52.486;4.650;2022-10-17T11:04:27;101949.00;;;17.24;86.20
37852;BME280;23691;52.486;4.650;2022-10-17T11:07:10;101957.66;;;17.20;85.83
37852;BME280;23691;52.486;4.650;2022-10-17T11:10:06;101962.41;;;17.17;86.03
37852;BME280;23691;52.486;4.650;2022-10-17T11:12:42;101961.41;;;17.19;86.22
37852;BME280;23691;52.486;4.650;2022-10-17T11:17:58;101947.19;;;17.39;85.74
37852;BME280;23691;52.486;4.650;2022-10-17T11:23:03;101958.66;;;17.65;85.11
37852;BME280;23691;52.486;4.650;2022-10-17T11:25:36;101960.69;;;17.63;85.42
37852;BME280;23691;52.486;4.650;2022-10-17T11:28:07;101966.66;;;17.58;85.48
37852;BME280;23691;52.486;4.650;2022-10-17T11:31:01;101975.06;;;17.63;85.39
37852;BME280;23691;52.486;4.650;2022-10-17T11:36:22;101989.13;;;17.58;84.99
37852;BME280;23691;52.486;4.650;2022-10-17T11:38:54;101987.00;;;17.69;85.29
37852;BME280;23691;52.486;4.650;2022-10-17T11:41:52;101984.41;;;17.75;84.68
37852;BME280;23691;52.486;4.650;2022-10-17T11:44:38;101989.38;;;17.87;84.48
37852;BME280;23691;52.486;4.650;2022-10-17T11:49:56;101996.97;;;18.06;83.78
37852;BME280;23691;52.486;4.650;2022-10-17T11:52:38;102010.63;;;18.13;83.37
37852;BME280;23691;52.486;4.650;2022-10-17T11:55:26;102009.22;;;18.17;82.99
37852;BME280;23691;52.486;4.650;2022-10-17T11:58:00;102012.59;;;18.19;82.77
37852;BME280;23691;52.486;4.650;2022-10-17T12:05:59;102030.13;;;18.08;82.30
37852;BME280;23691;52.486;4.650;2022-10-17T12:11:32;102030.22;;;18.00;82.45
37852;BME280;23691;52.486;4.650;2022-10-17T12:16:58;102044.13;;;17.97;82.20
37852;BME280;23691;52.486;4.650;2022-10-17T12:19:25;102036.97;;;18.04;82.41
37852;BME280;23691;52.486;4.650;2022-10-17T12:22:33;102039.75;;;18.11;81.94
37852;BME280;23691;52.486;4.650;2022-10-17T12:25:00;102043.66;;;18.08;81.67
37852;BME280;23691;52.486;4.650;2022-10-17T12:27:37;102040.78;;;18.10;81.48
37852;BME280;23691;52.486;4.650;2022-10-17T12:30:16;102042.94;;;18.14;81.62
37852;BME280;23691;52.486;4.650;2022-10-17T12:33:17;102042.28;;;18.12;80.80
37852;BME280;23691;52.486;4.650;2022-10-17T12:35:48;102034.13;;;17.97;80.59
37852;BME280;23691;52.486;4.650;2022-10-17T12:49:00;102057.31;;;18.15;79.92
37852;BME280;23691;52.486;4.650;2022-10-17T12:51:27;102061.53;;;18.17;79.56
37852;BME280;23691;52.486;4.650;2022-10-17T12:54:12;102058.25;;;18.22;79.29
37852;BME280;23691;52.486;4.650;2022-10-17T12:56:45;102053.78;;;18.29;78.77
37852;BME280;23691;52.486;4.650;2022-10-17T12:59:21;102049.94;;;18.38;78.62
37852;BME280;23691;52.486;4.650;2022-10-17T13:01:52;102052.28;;;18.41;78.02
37852;BME280;23691;52.486;4.650;2022-10-17T13:04:19;102059.66;;;18.48;77.98
37852;BME280;23691;52.486;4.650;2022-10-17T13:06:56;102054.91;;;18.50;78.05
37852;BME280;23691;52.486;4.650;2022-10-17T13:09:42;102060.31;;;18.50;77.78
37852;BME280;23691;52.486;4.650;2022-10-17T13:12:13;102060.69;;;18.47;77.75
37852;BME280;23691;52.486;4.650;2022-10-17T13:14:41;102064.81;;;18.42;77.69
37852;BME280;23691;52.486;4.650;2022-10-17T13:17:21;102061.69;;;18.31;77.92
37852;BME280;23691;52.486;4.650;2022-10-17T13:19:47;102067.03;;;18.24;77.97
37852;BME280;23691;52.486;4.650;2022-10-17T13:22:25;102075.34;;;18.22;78.13
37852;BME280;23691;52.486;4.650;2022-10-17T13:24:52;102074.22;;;18.17;78.35
37852;BME280;23691;52.486;4.650;2022-10-17T13:27:30;102087.94;;;18.15;78.19
37852;BME280;23691;52.486;4.650;2022-10-17T13:29:58;102086.81;;;18.10;78.69
37852;BME280;23691;52.486;4.650;2022-10-17T13:32:24;102092.41;;;18.08;78.77
37852;BME280;23691;52.486;4.650;2022-10-17T13:35:10;102084.78;;;18.12;78.72
37852;BME280;23691;52.486;4.650;2022-10-17T13:37:39;102082.53;;;18.15;78.57
37852;BME280;23691;52.486;4.650;2022-10-17T13:40:05;102073.28;;;18.24;78.13
37852;BME280;23691;52.486;4.650;2022-10-17T13:42:37;102074.69;;;18.35;78.04
37852;BME280;23691;52.486;4.650;2022-10-17T13:45:16;102062.09;;;18.42;77.75
37852;BME280;23691;52.486;4.650;2022-10-17T13:47:43;102068.28;;;18.51;77.38
37852;BME280;23691;52.486;4.650;2022-10-17T13:50:20;102077.34;;;18.58;77.01
37852;BME280;23691;52.486;4.650;2022-10-17T13:52:47;102064.78;;;18.57;77.18
37852;BME280;23691;52.486;4.650;2022-10-17T13:55:16;102074.03;;;18.63;77.15
37852;BME280;23691;52.486;4.650;2022-10-17T13:57:44;102071.31;;;18.63;76.89
37852;BME280;23691;52.486;4.650;2022-10-17T14:00:20;102088.06;;;18.66;77.08
37852;BME280;23691;52.486;4.650;2022-10-17T14:02:48;102098.44;;;18.63;76.85
37852;BME280;23691;52.486;4.650;2022-10-17T14:05:17;102093.78;;;18.57;76.91
37852;BME280;23691;52.486;4.650;2022-10-17T14:07:50;102110.22;;;18.55;76.92
37852;BME280;23691;52.486;4.650;2022-10-17T14:10:36;102110.88;;;18.57;76.90
37852;BME280;23691;52.486;4.650;2022-10-17T14:13:04;102112.84;;;18.63;76.85
37852;BME280;23691;52.486;4.650;2022-10-17T14:15:34;102103.13;;;18.69;76.85
37852;BME280;23691;52.486;4.650;2022-10-17T14:18:05;102121.44;;;18.67;76.53
37852;BME280;23691;52.486;4.650;2022-10-17T14:20:32;102136.69;;;18.68;76.49
37852;BME280;23691;52.486;4.650;2022-10-17T14:22:59;102128.44;;;18.61;76.05
37852;BME280;23691;52.486;4.650;2022-10-17T14:25:33;102120.09;;;18.63;76.21
37852;BME280;23691;52.486;4.650;2022-10-17T14:28:14;102127.22;;;18.64;76.15
37852;BME280;23691;52.486;4.650;2022-10-17T14:30:48;102126.84;;;18.67;75.83
37852;BME280;23691;52.486;4.650;2022-10-17T14:33:28;102132.44;;;18.65;75.99
37852;BME280;23691;52.486;4.650;2022-10-17T14:35:56;102140.28;;;18.60;75.83
37852;BME280;23691;52.486;4.650;2022-10-17T14:38:24;102146.09;;;18.57;76.12
37852;BME280;23691;52.486;4.650;2022-10-17T14:40:52;102140.22;;;18.54;76.02
37852;BME280;23691;52.486;4.650;2022-10-17T14:43:21;102150.84;;;18.55;76.22
37852;BME280;23691;52.486;4.650;2022-10-17T14:45:48;102155.63;;;18.53;76.19
37852;BME280;23691;52.486;4.650;2022-10-17T14:48:19;102141.22;;;18.53;76.28
37852;BME280;23691;52.486;4.650;2022-10-17T14:53:30;102159.53;;;18.51;76.66
37852;BME280;23691;52.486;4.650;2022-10-17T14:56:42;102157.03;;;18.49;76.98
37852;BME280;23691;52.486;4.650;2022-10-17T14:58:59;102157.03;;;18.49;77.03
37852;BME280;23691;52.486;4.650;2022-10-17T15:01:27;102168.25;;;18.46;77.13
37852;BME280;23691;52.486;4.650;2022-10-17T15:03:53;102174.00;;;18.43;77.42
37852;BME280;23691;52.486;4.650;2022-10-17T15:06:22;102175.78;;;18.36;77.56
37852;BME280;23691;52.486;4.650;2022-10-17T15:08:49;102179.34;;;18.36;78.02
37852;BME280;23691;52.486;4.650;2022-10-17T15:11:15;102180.56;;;18.34;78.06
37852;BME280;23691;52.486;4.650;2022-10-17T15:13:40;102183.91;;;18.36;78.03
37852;BME280;23691;52.486;4.650;2022-10-17T15:16:26;102187.47;;;18.36;78.14
37852;BME280;23691;52.486;4.650;2022-10-17T15:18:56;102181.94;;;18.30;78.29
37852;BME280;23691;52.486;4.650;2022-10-17T15:21:24;102185.03;;;18.27;78.27
37852;BME280;23691;52.486;4.650;2022-10-17T15:23:50;102186.41;;;18.22;78.63
37852;BME280;23691;52.486;4.650;2022-10-17T15:26:23;102196.41;;;18.22;78.65
37852;BME280;23691;52.486;4.650;2022-10-17T15:28:50;102185.94;;;18.19;78.89
37852;BME280;23691;52.486;4.650;2022-10-17T15:31:18;102185.06;;;18.18;79.19
37852;BME280;23691;52.486;4.650;2022-10-17T15:33:44;102197.13;;;18.16;78.93
37852;BME280;23691;52.486;4.650;2022-10-17T15:36:25;102185.44;;;18.15;79.02
37852;BME280;23691;52.486;4.650;2022-10-17T15:38:54;102192.25;;;18.11;79.14
37852;BME280;23691;52.486;4.650;2022-10-17T15:41:21;102196.34;;;18.07;79.70
37852;BME280;23691;52.486;4.650;2022-10-17T15:43:47;102187.94;;;18.02;79.72
37852;BME280;23691;52.486;4.650;2022-10-17T15:46:33;102192.84;;;17.98;79.86
37852;BME280;23691;52.486;4.650;2022-10-17T15:49:04;102199.00;;;17.92;80.33
37852;BME280;23691;52.486;4.650;2022-10-17T15:51:31;102203.75;;;17.90;80.41
37852;BME280;23691;52.486;4.650;2022-10-17T15:53:57;102203.44;;;17.85;80.56
37852;BME280;23691;52.486;4.650;2022-10-17T15:56:28;102202.13;;;17.81;80.62
37852;BME280;23691;52.486;4.650;2022-10-17T15:58:55;102203.44;;;17.77;80.96
37852;BME280;23691;52.486;4.650;2022-10-17T16:01:24;102212.13;;;17.72;80.93
37852;BME280;23691;52.486;4.650;2022-10-17T16:03:50;102223.13;;;17.71;81.62
37852;BME280;23691;52.486;4.650;2022-10-17T16:06:20;102223.50;;;17.68;81.37
37852;BME280;23691;52.486;4.650;2022-10-17T16:08:46;102222.47;;;17.69;81.25
37852;BME280;23691;52.486;4.650;2022-10-17T16:11:28;102227.72;;;17.70;81.34
37852;BME280;23691;52.486;4.650;2022-10-17T16:13:58;102221.47;;;17.62;81.21
37852;BME280;23691;52.486;4.650;2022-10-17T16:16:24;102223.88;;;17.56;81.78
37852;BME280;23691;52.486;4.650;2022-10-17T16:18:50;102219.66;;;17.54;81.59
37852;BME280;23691;52.486;4.650;2022-10-17T16:21:16;102224.41;;;17.52;81.80
37852;BME280;23691;52.486;4.650;2022-10-17T16:23:43;102236.13;;;17.44;81.89
37852;BME280;23691;52.486;4.650;2022-10-17T16:26:12;102245.63;;;17.40;82.34
37852;BME280;23691;52.486;4.650;2022-10-17T16:28:40;102251.34;;;17.37;82.37
37852;BME280;23691;52.486;4.650;2022-10-17T16:31:34;102255.47;;;17.33;82.94
37852;BME280;23691;52.486;4.650;2022-10-17T16:34:00;102251.75;;;17.26;82.94
37852;BME280;23691;52.486;4.650;2022-10-17T16:36:25;102247.88;;;17.20;83.40
37852;BME280;23691;52.486;4.650;2022-10-17T16:38:51;102250.75;;;17.19;83.81
37852;BME280;23691;52.486;4.650;2022-10-17T16:41:23;102245.53;;;17.17;83.85
37852;BME280;23691;52.486;4.650;2022-10-17T16:43:49;102244.53;;;17.18;84.01
37852;BME280;23691;52.486;4.650;2022-10-17T16:46:16;102251.75;;;17.17;83.72
37852;BME280;23691;52.486;4.650;2022-10-17T16:48:43;102256.53;;;17.15;84.06
37852;BME280;23691;52.486;4.650;2022-10-17T16:51:10;102251.28;;;17.14;83.59
37852;BME280;23691;52.486;4.650;2022-10-17T16:53:36;102255.19;;;17.11;84.00
37852;BME280;23691;52.486;4.650;2022-10-17T16:56:09;102253.66;;;17.09;83.94
37852;BME280;23691;52.486;4.650;2022-10-17T16:58:35;102264.84;;;17.06;83.89
37852;BME280;23691;52.486;4.650;2022-10-17T17:01:02;102264.66;;;17.07;83.90
37852;BME280;23691;52.486;4.650;2022-10-17T17:03:28;102273.94;;;17.05;84.12
37852;BME280;23691;52.486;4.650;2022-10-17T17:05:54;102276.16;;;17.01;84.17
37852;BME280;23691;52.486;4.650;2022-10-17T17:08:19;102278.03;;;17.01;84.36
37852;BME280;23691;52.486;4.650;2022-10-17T17:10:46;102272.63;;;17.01;84.46
37852;BME280;23691;52.486;4.650;2022-10-17T17:13:14;102277.50;;;16.97;84.80
37852;BME280;23691;52.486;4.650;2022-10-17T17:15:40;102283.44;;;17.01;84.47
37852;BME280;23691;52.486;4.650;2022-10-17T17:18:05;102281.06;;;16.98;84.99
37852;BME280;23691;52.486;4.650;2022-10-17T17:20:32;102281.25;;;16.96;84.88
37852;BME280;23691;52.486;4.650;2022-10-17T17:22:57;102290.53;;;16.93;85.18
37852;BME280;23691;52.486;4.650;2022-10-17T17:25:22;102281.91;;;16.90;85.02
37852;BME280;23691;52.486;4.650;2022-10-17T17:27:48;102293.75;;;16.89;85.33
37852;BME280;23691;52.486;4.650;2022-10-17T17:30:13;102300.00;;;16.89;85.25
37852;BME280;23691;52.486;4.650;2022-10-17T17:32:39;102309.78;;;16.90;85.62
37852;BME280;23691;52.486;4.650;2022-10-17T17:35:04;102317.25;;;16.88;85.39
37852;BME280;23691;52.486;4.650;2022-10-17T17:37:30;102312.84;;;16.87;85.62
37852;BME280;23691;52.486;4.650;2022-10-17T17:39:55;102308.47;;;16.86;85.57
37852;BME280;23691;52.486;4.650;2022-10-17T17:42:21;102310.47;;;16.84;85.86
37852;BME280;23691;52.486;4.650;2022-10-17T17:44:47;102318.75;;;16.83;85.72
37852;BME280;23691;52.486;4.650;2022-10-17T17:47:13;102325.66;;;16.85;85.94
37852;BME280;23691;52.486;4.650;2022-10-17T17:49:38;102333.78;;;16.85;85.84
37852;BME280;23691;52.486;4.650;2022-10-17T17:52:04;102345.63;;;16.84;85.62
37852;BME280;23691;52.486;4.650;2022-10-17T17:54:29;102346.81;;;16.82;85.73
37852;BME280;23691;52.486;4.650;2022-10-17T17:56:55;102339.69;;;16.81;85.73
37852;BME280;23691;52.486;4.650;2022-10-17T17:59:20;102336.00;;;16.82;85.71